sensor_id;sensor_type;location;lat;lon;timestamp;temperature;humidity
24614;DHT22;12760;46.296;25.290;2023-08-30T00:00:13;23.20;99.90
24614;DHT22;12760;46.296;25.290;2023-08-30T00:02:39;23.20;99.90
24614;DHT22;12760;46.296;25.290;2023-08-30T00:05:05;23.30;99.90
24614;DHT22;12760;46.296;25.290;2023-08-30T00:07:31;23.30;99.90
24614;DHT22;12760;46.296;25.290;2023-08-30T00:09:58;23.30;99.90
24614;DHT22;12760;46.296;25.290;2023-08-30T00:12:24;23.20;99.90
24614;DHT22;12760;46.296;25.290;2023-08-30T00:14:51;23.00;99.90
24614;DHT22;12760;46.296;25.290;2023-08-30T00:17:17;22.70;99.90
24614;DHT22;12760;46.296;25.290;2023-08-30T00:19:42;22.40;99.90
24614;DHT22;12760;46.296;25.290;2023-08-30T00:22:08;22.30;99.90
24614;DHT22;12760;46.296;25.290;2023-08-30T00:24:34;22.50;99.90
24614;DHT22;12760;46.296;25.290;2023-08-30T00:27:01;22.70;99.90
24614;DHT22;12760;46.296;25.290;2023-08-30T00:29:28;22.80;99.90
24614;DHT22;12760;46.296;25.290;2023-08-30T00:31:54;22.80;99.90
24614;DHT22;12760;46.296;25.290;2023-08-30T00:34:19;22.60;99.90
24614;DHT22;12760;46.296;25.290;2023-08-30T00:36:45;22.50;99.90
24614;DHT22;12760;46.296;25.290;2023-08-30T00:39:11;21.90;99.90
24614;DHT22;12760;46.296;25.290;2023-08-30T00:41:37;21.90;99.90
24614;DHT22;12760;46.296;25.290;2023-08-30T00:44:02;21.70;99.90
24614;DHT22;12760;46.296;25.290;2023-08-30T00:46:29;21.80;99.90
24614;DHT22;12760;46.296;25.290;2023-08-30T00:48:55;21.80;99.90
24614;DHT22;12760;46.296;25.290;2023-08-30T00:51:21;21.80;99.90
24614;DHT22;12760;46.296;25.290;2023-08-30T00:53:48;21.80;99.90
24614;DHT22;12760;46.296;25.290;2023-08-30T00:56:15;22.00;99.90
24614;DHT22;12760;46.296;25.290;2023-08-30T00:58:41;22.00;99.90
24614;DHT22;12760;46.296;25.290;2023-08-30T01:01:07;21.80;99.90
24614;DHT22;12760;46.296;25.290;2023-08-30T01:03:34;21.70;99.90
24614;DHT22;12760;46.296;25.290;2023-08-30T01:06:01;20.80;99.90
24614;DHT22;12760;46.296;25.290;2023-08-30T01:08:27;20.80;99.90
24614;DHT22;12760;46.296;25.290;2023-08-30T01:11:29;21.10;99.90
24614;DHT22;12760;46.296;25.290;2023-08-30T01:14:09;21.00;99.90
24614;DHT22;12760;46.296;25.290;2023-08-30T01:16:38;20.80;99.90
24614;DHT22;12760;46.296;25.290;2023-08-30T01:27:29;21.50;99.90
24614;DHT22;12760;46.296;25.290;2023-08-30T01:29:57;21.60;99.90
24614;DHT22;12760;46.296;25.290;2023-08-30T01:32:24;21.40;99.90
24614;DHT22;12760;46.296;25.290;2023-08-30T01:34:51;21.00;99.90
24614;DHT22;12760;46.296;25.290;2023-08-30T01:37:18;20.80;99.90
24614;DHT22;12760;46.296;25.290;2023-08-30T01:39:44;20.80;99.90
24614;DHT22;12760;46.296;25.290;2023-08-30T01:42:11;21.10;99.90
24614;DHT22;12760;46.296;25.290;2023-08-30T01:44:41;21.30;99.90
24614;DHT22;12760;46.296;25.290;2023-08-30T01:47:11;21.40;99.90
24614;DHT22;12760;46.296;25.290;2023-08-30T01:49:37;21.60;99.90
24614;DHT22;12760;46.296;25.290;2023-08-30T01:52:05;21.70;99.90
24614;DHT22;12760;46.296;25.290;2023-08-30T01:54:32;21.80;99.90
24614;DHT22;12760;46.296;25.290;2023-08-30T01:56:58;21.90;99.90
24614;DHT22;12760;46.296;25.290;2023-08-30T01:59:24;22.00;99.90
24614;DHT22;12760;46.296;25.290;2023-08-30T02:01:51;22.10;99.90
24614;DHT22;12760;46.296;25.290;2023-08-30T02:04:17;22.10;99.90
24614;DHT22;12760;46.296;25.290;2023-08-30T02:06:50;22.20;99.90
24614;DHT22;12760;46.296;25.290;2023-08-30T02:12:06;22.10;99.90
24614;DHT22;12760;46.296;25.290;2023-08-30T02:14:33;22.00;99.90
24614;DHT22;12760;46.296;25.290;2023-08-30T02:16:59;22.00;99.90
24614;DHT22;12760;46.296;25.290;2023-08-30T02:19:25;22.10;99.90
24614;DHT22;12760;46.296;25.290;2023-08-30T02:21:51;22.00;99.90
24614;DHT22;12760;46.296;25.290;2023-08-30T02:24:17;21.90;99.90
24614;DHT22;12760;46.296;25.290;2023-08-30T02:26:43;21.90;99.90
24614;DHT22;12760;46.296;25.290;2023-08-30T02:29:08;21.80;99.90
24614;DHT22;12760;46.296;25.290;2023-08-30T02:31:35;21.70;99.90
24614;DHT22;12760;46.296;25.290;2023-08-30T02:34:01;21.70;99.90
24614;DHT22;12760;46.296;25.290;2023-08-30T02:36:27;21.80;99.90
24614;DHT22;12760;46.296;25.290;2023-08-30T02:38:53;21.90;99.90
24614;DHT22;12760;46.296;25.290;2023-08-30T02:41:19;22.00;99.90
24614;DHT22;12760;46.296;25.290;2023-08-30T02:43:44;22.00;99.90
24614;DHT22;12760;46.296;25.290;2023-08-30T02:46:10;21.80;99.90
24614;DHT22;12760;46.296;25.290;2023-08-30T02:48:36;21.70;99.90
24614;DHT22;12760;46.296;25.290;2023-08-30T02:51:02;21.80;99.90
24614;DHT22;12760;46.296;25.290;2023-08-30T02:53:27;21.70;99.90
24614;DHT22;12760;46.296;25.290;2023-08-30T02:55:53;21.60;99.90
24614;DHT22;12760;46.296;25.290;2023-08-30T02:58:21;21.70;99.90
24614;DHT22;12760;46.296;25.290;2023-08-30T03:00:47;21.80;99.90
24614;DHT22;12760;46.296;25.290;2023-08-30T03:03:13;21.70;99.90
24614;DHT22;12760;46.296;25.290;2023-08-30T03:05:38;21.80;99.90
24614;DHT22;12760;46.296;25.290;2023-08-30T03:08:04;21.90;99.90
24614;DHT22;12760;46.296;25.290;2023-08-30T03:10:30;21.80;99.90
24614;DHT22;12760;46.296;25.290;2023-08-30T03:12:56;21.70;99.90
24614;DHT22;12760;46.296;25.290;2023-08-30T03:15:21;21.70;99.90
24614;DHT22;12760;46.296;25.290;2023-08-30T03:17:47;21.70;99.90
24614;DHT22;12760;46.296;25.290;2023-08-30T03:20:13;21.60;99.90
24614;DHT22;12760;46.296;25.290;2023-08-30T03:22:38;21.70;99.90
24614;DHT22;12760;46.296;25.290;2023-08-30T03:25:04;21.70;99.90
24614;DHT22;12760;46.296;25.290;2023-08-30T03:27:32;21.60;99.90
24614;DHT22;12760;46.296;25.290;2023-08-30T03:29:58;21.60;99.90
24614;DHT22;12760;46.296;25.290;2023-08-30T03:32:24;21.60;99.90
24614;DHT22;12760;46.296;25.290;2023-08-30T03:34:49;21.70;99.90
24614;DHT22;12760;46.296;25.290;2023-08-30T03:37:16;21.70;99.90
24614;DHT22;12760;46.296;25.290;2023-08-30T03:39:42;21.60;99.90
24614;DHT22;12760;46.296;25.290;2023-08-30T03:42:08;21.60;99.90
24614;DHT22;12760;46.296;25.290;2023-08-30T03:44:34;21.60;99.90
24614;DHT22;12760;46.296;25.290;2023-08-30T03:47:00;21.70;99.90
24614;DHT22;12760;46.296;25.290;2023-08-30T03:49:27;21.60;99.90
24614;DHT22;12760;46.296;25.290;2023-08-30T03:51:53;21.60;99.90
24614;DHT22;12760;46.296;25.290;2023-08-30T03:54:18;21.60;99.90
24614;DHT22;12760;46.296;25.290;2023-08-30T03:56:45;21.60;99.90
24614;DHT22;12760;46.296;25.290;2023-08-30T03:59:11;21.60;99.90
24614;DHT22;12760;46.296;25.290;2023-08-30T04:01:37;21.60;99.90
24614;DHT22;12760;46.296;25.290;2023-08-30T04:04:03;21.50;99.90
24614;DHT22;12760;46.296;25.290;2023-08-30T04:06:30;21.40;99.90
24614;DHT22;12760;46.296;25.290;2023-08-30T04:08:56;21.30;99.90
24614;DHT22;12760;46.296;25.290;2023-08-30T04:11:22;21.30;99.90
24614;DHT22;12760;46.296;25.290;2023-08-30T04:13:48;21.40;99.90
24614;DHT22;12760;46.296;25.290;2023-08-30T04:16:13;21.50;99.90
24614;DHT22;12760;46.296;25.290;2023-08-30T04:18:39;21.60;99.90
24614;DHT22;12760;46.296;25.290;2023-08-30T04:21:05;21.60;99.90
24614;DHT22;12760;46.296;25.290;2023-08-30T04:23:33;21.50;99.90
24614;DHT22;12760;46.296;25.290;2023-08-30T04:25:58;21.30;99.90
24614;DHT22;12760;46.296;25.290;2023-08-30T04:28:24;21.40;99.90
24614;DHT22;12760;46.296;25.290;2023-08-30T04:30:54;21.40;99.90
24614;DHT22;12760;46.296;25.290;2023-08-30T04:33:20;21.40;99.90
24614;DHT22;12760;46.296;25.290;2023-08-30T04:35:54;21.30;99.90
24614;DHT22;12760;46.296;25.290;2023-08-30T04:38:20;21.30;99.90
24614;DHT22;12760;46.296;25.290;2023-08-30T04:40:47;21.40;99.90
24614;DHT22;12760;46.296;25.290;2023-08-30T04:43:13;21.40;99.90
24614;DHT22;12760;46.296;25.290;2023-08-30T04:45:39;21.40;99.90
24614;DHT22;12760;46.296;25.290;2023-08-30T04:48:05;21.50;99.90
24614;DHT22;12760;46.296;25.290;2023-08-30T04:50:31;21.50;99.90
24614;DHT22;12760;46.296;25.290;2023-08-30T04:52:57;21.50;99.90
24614;DHT22;12760;46.296;25.290;2023-08-30T04:55:28;21.60;99.90
24614;DHT22;12760;46.296;25.290;2023-08-30T04:57:54;21.60;99.90
24614;DHT22;12760;46.296;25.290;2023-08-30T05:00:19;21.60;99.90
24614;DHT22;12760;46.296;25.290;2023-08-30T05:02:45;21.50;99.90
24614;DHT22;12760;46.296;25.290;2023-08-30T05:05:13;21.50;99.90
24614;DHT22;12760;46.296;25.290;2023-08-30T05:07:39;21.40;99.90
24614;DHT22;12760;46.296;25.290;2023-08-30T05:10:05;20.90;99.90
24614;DHT22;12760;46.296;25.290;2023-08-30T05:12:32;20.50;99.90
24614;DHT22;12760;46.296;25.290;2023-08-30T05:14:58;20.50;99.90
24614;DHT22;12760;46.296;25.290;2023-08-30T05:17:24;20.70;99.90
24614;DHT22;12760;46.296;25.290;2023-08-30T05:19:50;20.70;99.90
24614;DHT22;12760;46.296;25.290;2023-08-30T05:22:16;20.80;99.90
24614;DHT22;12760;46.296;25.290;2023-08-30T05:24:42;20.90;99.90
24614;DHT22;12760;46.296;25.290;2023-08-30T05:27:07;20.90;99.90
24614;DHT22;12760;46.296;25.290;2023-08-30T05:29:33;21.00;99.90
24614;DHT22;12760;46.296;25.290;2023-08-30T05:31:59;21.00;99.90
24614;DHT22;12760;46.296;25.290;2023-08-30T05:34:24;20.90;99.90
24614;DHT22;12760;46.296;25.290;2023-08-30T05:36:52;20.90;99.90
24614;DHT22;12760;46.296;25.290;2023-08-30T05:39:18;21.00;99.90
24614;DHT22;12760;46.296;25.290;2023-08-30T05:41:44;21.10;99.90
24614;DHT22;12760;46.296;25.290;2023-08-30T05:44:09;21.00;99.90
24614;DHT22;12760;46.296;25.290;2023-08-30T05:46:36;21.00;99.90
24614;DHT22;12760;46.296;25.290;2023-08-30T05:49:01;21.10;99.90
24614;DHT22;12760;46.296;25.290;2023-08-30T05:51:29;21.10;99.90
24614;DHT22;12760;46.296;25.290;2023-08-30T05:53:54;21.20;99.90
24614;DHT22;12760;46.296;25.290;2023-08-30T05:56:20;21.20;99.90
24614;DHT22;12760;46.296;25.290;2023-08-30T05:58:46;21.30;99.90
24614;DHT22;12760;46.296;25.290;2023-08-30T06:01:12;21.20;99.90
24614;DHT22;12760;46.296;25.290;2023-08-30T06:03:37;21.20;99.90
24614;DHT22;12760;46.296;25.290;2023-08-30T06:06:04;21.20;99.90
24614;DHT22;12760;46.296;25.290;2023-08-30T06:08:30;21.20;99.90
24614;DHT22;12760;46.296;25.290;2023-08-30T06:10:55;21.20;99.90
24614;DHT22;12760;46.296;25.290;2023-08-30T06:13:21;21.10;99.90
24614;DHT22;12760;46.296;25.290;2023-08-30T06:15:51;21.10;99.90
24614;DHT22;12760;46.296;25.290;2023-08-30T06:18:17;21.20;99.90
24614;DHT22;12760;46.296;25.290;2023-08-30T06:20:42;21.20;99.90
24614;DHT22;12760;46.296;25.290;2023-08-30T06:23:08;21.20;99.90
24614;DHT22;12760;46.296;25.290;2023-08-30T06:25:35;21.20;99.90
24614;DHT22;12760;46.296;25.290;2023-08-30T06:28:01;21.30;99.90
24614;DHT22;12760;46.296;25.290;2023-08-30T06:30:29;21.20;99.90
24614;DHT22;12760;46.296;25.290;2023-08-30T06:32:57;21.30;99.90
24614;DHT22;12760;46.296;25.290;2023-08-30T06:35:24;21.40;99.90
24614;DHT22;12760;46.296;25.290;2023-08-30T06:37:49;21.40;99.90
24614;DHT22;12760;46.296;25.290;2023-08-30T06:40:15;21.30;99.90
24614;DHT22;12760;46.296;25.290;2023-08-30T06:42:41;21.30;99.90
24614;DHT22;12760;46.296;25.290;2023-08-30T06:45:07;21.30;99.90
24614;DHT22;12760;46.296;25.290;2023-08-30T06:47:32;21.40;99.90
24614;DHT22;12760;46.296;25.290;2023-08-30T06:49:59;21.40;99.90
24614;DHT22;12760;46.296;25.290;2023-08-30T06:52:25;21.40;99.90
24614;DHT22;12760;46.296;25.290;2023-08-30T06:54:51;21.40;99.90
24614;DHT22;12760;46.296;25.290;2023-08-30T06:57:17;21.20;99.90
24614;DHT22;12760;46.296;25.290;2023-08-30T06:59:42;21.30;99.90
24614;DHT22;12760;46.296;25.290;2023-08-30T07:02:08;21.40;99.90
24614;DHT22;12760;46.296;25.290;2023-08-30T07:04:34;21.20;99.90
24614;DHT22;12760;46.296;25.290;2023-08-30T07:06:59;21.00;99.90
24614;DHT22;12760;46.296;25.290;2023-08-30T07:09:25;21.10;99.90
24614;DHT22;12760;46.296;25.290;2023-08-30T07:11:55;21.20;99.90
24614;DHT22;12760;46.296;25.290;2023-08-30T07:14:21;21.20;99.90
24614;DHT22;12760;46.296;25.290;2023-08-30T07:16:46;21.30;99.90
24614;DHT22;12760;46.296;25.290;2023-08-30T07:19:15;21.40;99.90
24614;DHT22;12760;46.296;25.290;2023-08-30T07:21:42;21.30;99.90
24614;DHT22;12760;46.296;25.290;2023-08-30T07:24:08;21.30;99.90
24614;DHT22;12760;46.296;25.290;2023-08-30T07:26:34;21.30;99.90
24614;DHT22;12760;46.296;25.290;2023-08-30T07:29:00;21.20;99.90
24614;DHT22;12760;46.296;25.290;2023-08-30T07:31:26;21.20;99.90
24614;DHT22;12760;46.296;25.290;2023-08-30T07:33:51;21.10;99.90
24614;DHT22;12760;46.296;25.290;2023-08-30T07:36:17;21.20;99.90
24614;DHT22;12760;46.296;25.290;2023-08-30T07:38:43;21.20;99.90
24614;DHT22;12760;46.296;25.290;2023-08-30T07:41:09;21.10;99.90
24614;DHT22;12760;46.296;25.290;2023-08-30T07:43:35;21.10;99.90
24614;DHT22;12760;46.296;25.290;2023-08-30T07:46:01;21.10;99.90
24614;DHT22;12760;46.296;25.290;2023-08-30T07:48:26;21.00;99.90
24614;DHT22;12760;46.296;25.290;2023-08-30T07:50:52;21.00;99.90
24614;DHT22;12760;46.296;25.290;2023-08-30T07:53:18;20.80;99.90
24614;DHT22;12760;46.296;25.290;2023-08-30T07:55:48;20.90;99.90
24614;DHT22;12760;46.296;25.290;2023-08-30T07:58:14;21.00;99.90
24614;DHT22;12760;46.296;25.290;2023-08-30T08:00:40;21.00;99.90
24614;DHT22;12760;46.296;25.290;2023-08-30T08:03:06;21.00;99.90
24614;DHT22;12760;46.296;25.290;2023-08-30T08:05:32;21.10;99.90
24614;DHT22;12760;46.296;25.290;2023-08-30T08:08:00;21.00;99.90
24614;DHT22;12760;46.296;25.290;2023-08-30T08:10:35;21.00;99.90
24614;DHT22;12760;46.296;25.290;2023-08-30T08:13:00;21.00;99.90
24614;DHT22;12760;46.296;25.290;2023-08-30T08:15:28;21.00;99.90
24614;DHT22;12760;46.296;25.290;2023-08-30T08:17:56;20.90;99.90
24614;DHT22;12760;46.296;25.290;2023-08-30T08:20:22;20.90;99.90
24614;DHT22;12760;46.296;25.290;2023-08-30T08:22:48;20.70;99.90
24614;DHT22;12760;46.296;25.290;2023-08-30T08:25:13;20.90;99.90
24614;DHT22;12760;46.296;25.290;2023-08-30T08:27:39;21.10;99.90
24614;DHT22;12760;46.296;25.290;2023-08-30T08:30:06;21.20;99.90
24614;DHT22;12760;46.296;25.290;2023-08-30T08:32:32;21.40;99.90
24614;DHT22;12760;46.296;25.290;2023-08-30T08:34:58;21.50;99.90
24614;DHT22;12760;46.296;25.290;2023-08-30T08:37:24;21.50;99.90
24614;DHT22;12760;46.296;25.290;2023-08-30T08:39:50;21.60;99.90
24614;DHT22;12760;46.296;25.290;2023-08-30T08:42:18;21.60;99.90
24614;DHT22;12760;46.296;25.290;2023-08-30T08:44:47;21.60;99.90
24614;DHT22;12760;46.296;25.290;2023-08-30T08:47:16;21.60;99.90
24614;DHT22;12760;46.296;25.290;2023-08-30T08:49:43;21.60;99.90
24614;DHT22;12760;46.296;25.290;2023-08-30T08:52:09;21.60;99.90
24614;DHT22;12760;46.296;25.290;2023-08-30T08:54:39;21.50;99.90
24614;DHT22;12760;46.296;25.290;2023-08-30T08:57:06;21.60;99.90
24614;DHT22;12760;46.296;25.290;2023-08-30T08:59:32;21.80;99.90
24614;DHT22;12760;46.296;25.290;2023-08-30T09:01:59;21.90;99.90
24614;DHT22;12760;46.296;25.290;2023-08-30T09:04:25;22.00;99.90
24614;DHT22;12760;46.296;25.290;2023-08-30T09:06:52;22.10;99.90
24614;DHT22;12760;46.296;25.290;2023-08-30T09:09:18;22.00;99.90
24614;DHT22;12760;46.296;25.290;2023-08-30T09:11:43;22.10;99.90
24614;DHT22;12760;46.296;25.290;2023-08-30T09:14:09;22.00;99.90
24614;DHT22;12760;46.296;25.290;2023-08-30T09:16:35;22.20;99.90
24614;DHT22;12760;46.296;25.290;2023-08-30T09:19:02;22.30;99.90
24614;DHT22;12760;46.296;25.290;2023-08-30T09:21:29;22.40;99.90
24614;DHT22;12760;46.296;25.290;2023-08-30T09:24:02;22.40;99.90
24614;DHT22;12760;46.296;25.290;2023-08-30T09:26:28;22.50;99.90
24614;DHT22;12760;46.296;25.290;2023-08-30T09:29:05;22.50;99.90
24614;DHT22;12760;46.296;25.290;2023-08-30T09:31:38;22.50;99.90
24614;DHT22;12760;46.296;25.290;2023-08-30T09:34:05;22.70;99.90
24614;DHT22;12760;46.296;25.290;2023-08-30T09:36:38;22.70;99.90
24614;DHT22;12760;46.296;25.290;2023-08-30T09:39:08;22.70;99.90
24614;DHT22;12760;46.296;25.290;2023-08-30T09:41:48;22.80;99.90
24614;DHT22;12760;46.296;25.290;2023-08-30T09:44:17;22.80;99.90
24614;DHT22;12760;46.296;25.290;2023-08-30T09:46:49;22.80;99.90
24614;DHT22;12760;46.296;25.290;2023-08-30T09:49:19;23.00;99.90
24614;DHT22;12760;46.296;25.290;2023-08-30T09:51:46;23.00;99.90
24614;DHT22;12760;46.296;25.290;2023-08-30T09:54:17;23.10;99.90
24614;DHT22;12760;46.296;25.290;2023-08-30T09:56:44;23.40;99.90
24614;DHT22;12760;46.296;25.290;2023-08-30T09:59:11;23.50;99.90
24614;DHT22;12760;46.296;25.290;2023-08-30T10:01:41;23.70;99.90
24614;DHT22;12760;46.296;25.290;2023-08-30T10:04:10;23.70;99.90
24614;DHT22;12760;46.296;25.290;2023-08-30T10:06:37;23.90;99.90
24614;DHT22;12760;46.296;25.290;2023-08-30T10:09:04;24.10;99.90
24614;DHT22;12760;46.296;25.290;2023-08-30T10:11:32;24.00;99.90
24614;DHT22;12760;46.296;25.290;2023-08-30T10:14:00;24.10;99.90
24614;DHT22;12760;46.296;25.290;2023-08-30T10:16:27;24.30;99.90
24614;DHT22;12760;46.296;25.290;2023-08-30T10:19:02;24.20;99.90
24614;DHT22;12760;46.296;25.290;2023-08-30T10:21:29;24.40;99.90
24614;DHT22;12760;46.296;25.290;2023-08-30T10:23:56;24.70;99.90
24614;DHT22;12760;46.296;25.290;2023-08-30T10:26:24;24.80;99.90
24614;DHT22;12760;46.296;25.290;2023-08-30T10:28:55;25.00;99.90
24614;DHT22;12760;46.296;25.290;2023-08-30T10:31:22;24.90;99.90
24614;DHT22;12760;46.296;25.290;2023-08-30T10:33:53;25.00;99.90
24614;DHT22;12760;46.296;25.290;2023-08-30T10:36:26;25.30;99.90
24614;DHT22;12760;46.296;25.290;2023-08-30T10:38:53;25.50;99.90
24614;DHT22;12760;46.296;25.290;2023-08-30T10:41:26;25.60;99.90
24614;DHT22;12760;46.296;25.290;2023-08-30T10:43:54;25.80;99.90
24614;DHT22;12760;46.296;25.290;2023-08-30T10:46:34;25.90;99.90
24614;DHT22;12760;46.296;25.290;2023-08-30T10:49:11;25.80;99.90
24614;DHT22;12760;46.296;25.290;2023-08-30T10:51:40;25.80;99.90
24614;DHT22;12760;46.296;25.290;2023-08-30T10:54:15;25.70;99.90
24614;DHT22;12760;46.296;25.290;2023-08-30T10:59:20;25.80;99.90
24614;DHT22;12760;46.296;25.290;2023-08-30T11:01:47;25.70;99.90
24614;DHT22;12760;46.296;25.290;2023-08-30T11:04:15;25.70;99.90
24614;DHT22;12760;46.296;25.290;2023-08-30T11:06:46;26.00;99.90
24614;DHT22;12760;46.296;25.290;2023-08-30T11:09:22;26.00;99.90
24614;DHT22;12760;46.296;25.290;2023-08-30T11:11:50;26.10;99.90
24614;DHT22;12760;46.296;25.290;2023-08-30T11:14:17;26.30;99.90
24614;DHT22;12760;46.296;25.290;2023-08-30T11:16:43;26.40;99.90
24614;DHT22;12760;46.296;25.290;2023-08-30T11:19:10;26.50;99.90
24614;DHT22;12760;46.296;25.290;2023-08-30T11:21:38;26.60;99.90
24614;DHT22;12760;46.296;25.290;2023-08-30T11:24:05;26.70;99.90
24614;DHT22;12760;46.296;25.290;2023-08-30T11:26:31;26.80;99.90
24614;DHT22;12760;46.296;25.290;2023-08-30T11:28:57;26.70;99.90
24614;DHT22;12760;46.296;25.290;2023-08-30T11:31:26;26.70;99.90
24614;DHT22;12760;46.296;25.290;2023-08-30T11:33:54;26.70;99.90
24614;DHT22;12760;46.296;25.290;2023-08-30T11:36:29;26.70;99.90
24614;DHT22;12760;46.296;25.290;2023-08-30T11:38:55;26.60;99.90
24614;DHT22;12760;46.296;25.290;2023-08-30T11:41:21;26.30;99.90
24614;DHT22;12760;46.296;25.290;2023-08-30T11:43:47;26.30;99.90
24614;DHT22;12760;46.296;25.290;2023-08-30T11:46:13;26.30;99.90
24614;DHT22;12760;46.296;25.290;2023-08-30T11:48:43;26.40;99.90
24614;DHT22;12760;46.296;25.290;2023-08-30T11:51:09;26.30;99.90
24614;DHT22;12760;46.296;25.290;2023-08-30T11:53:37;26.50;99.90
24614;DHT22;12760;46.296;25.290;2023-08-30T11:56:03;26.50;99.90
24614;DHT22;12760;46.296;25.290;2023-08-30T11:58:34;26.30;99.90
24614;DHT22;12760;46.296;25.290;2023-08-30T12:01:00;26.00;99.90
24614;DHT22;12760;46.296;25.290;2023-08-30T12:03:27;26.20;99.90
24614;DHT22;12760;46.296;25.290;2023-08-30T12:05:54;26.20;99.90
24614;DHT22;12760;46.296;25.290;2023-08-30T12:08:30;26.30;99.90
24614;DHT22;12760;46.296;25.290;2023-08-30T12:10:57;26.30;99.90
24614;DHT22;12760;46.296;25.290;2023-08-30T12:13:28;26.30;99.90
24614;DHT22;12760;46.296;25.290;2023-08-30T12:15:56;26.50;99.90
24614;DHT22;12760;46.296;25.290;2023-08-30T12:18:26;26.50;99.90
24614;DHT22;12760;46.296;25.290;2023-08-30T12:21:00;26.70;99.90
24614;DHT22;12760;46.296;25.290;2023-08-30T12:23:28;26.80;99.90
24614;DHT22;12760;46.296;25.290;2023-08-30T12:26:00;26.80;99.90
24614;DHT22;12760;46.296;25.290;2023-08-30T12:28:27;26.90;99.90
24614;DHT22;12760;46.296;25.290;2023-08-30T12:30:53;26.70;99.90
24614;DHT22;12760;46.296;25.290;2023-08-30T12:33:19;26.70;99.90
24614;DHT22;12760;46.296;25.290;2023-08-30T12:35:45;26.80;99.90
24614;DHT22;12760;46.296;25.290;2023-08-30T12:38:11;26.90;99.90
24614;DHT22;12760;46.296;25.290;2023-08-30T12:40:37;26.90;99.90
24614;DHT22;12760;46.296;25.290;2023-08-30T12:43:04;27.00;99.90
24614;DHT22;12760;46.296;25.290;2023-08-30T12:45:30;27.00;99.90
24614;DHT22;12760;46.296;25.290;2023-08-30T12:47:55;27.20;99.90
24614;DHT22;12760;46.296;25.290;2023-08-30T12:50:24;27.10;99.90
24614;DHT22;12760;46.296;25.290;2023-08-30T12:52:50;27.10;99.90
24614;DHT22;12760;46.296;25.290;2023-08-30T12:55:15;27.30;99.90
24614;DHT22;12760;46.296;25.290;2023-08-30T12:57:43;27.40;99.90
24614;DHT22;12760;46.296;25.290;2023-08-30T13:00:12;27.50;99.90
24614;DHT22;12760;46.296;25.290;2023-08-30T13:02:38;27.30;99.90
24614;DHT22;12760;46.296;25.290;2023-08-30T13:05:05;27.40;99.90
24614;DHT22;12760;46.296;25.290;2023-08-30T13:07:30;27.40;99.90
24614;DHT22;12760;46.296;25.290;2023-08-30T13:09:56;27.40;99.90
24614;DHT22;12760;46.296;25.290;2023-08-30T13:12:22;27.50;99.90
24614;DHT22;12760;46.296;25.290;2023-08-30T13:14:48;27.50;99.90
24614;DHT22;12760;46.296;25.290;2023-08-30T13:17:14;27.40;99.90
24614;DHT22;12760;46.296;25.290;2023-08-30T13:19:43;27.40;99.90
24614;DHT22;12760;46.296;25.290;2023-08-30T13:22:09;27.50;99.90
24614;DHT22;12760;46.296;25.290;2023-08-30T13:24:36;27.50;99.90
24614;DHT22;12760;46.296;25.290;2023-08-30T13:27:02;27.50;99.90
24614;DHT22;12760;46.296;25.290;2023-08-30T13:29:28;27.40;99.90
24614;DHT22;12760;46.296;25.290;2023-08-30T13:31:54;27.40;99.90
24614;DHT22;12760;46.296;25.290;2023-08-30T13:34:19;27.30;99.90
24614;DHT22;12760;46.296;25.290;2023-08-30T13:36:45;27.30;99.90
24614;DHT22;12760;46.296;25.290;2023-08-30T13:39:11;27.40;99.90
24614;DHT22;12760;46.296;25.290;2023-08-30T13:41:37;27.40;99.90
24614;DHT22;12760;46.296;25.290;2023-08-30T13:44:03;27.40;99.90
24614;DHT22;12760;46.296;25.290;2023-08-30T13:46:32;27.30;99.90
24614;DHT22;12760;46.296;25.290;2023-08-30T13:48:57;27.40;99.90
24614;DHT22;12760;46.296;25.290;2023-08-30T13:51:24;27.50;99.90
24614;DHT22;12760;46.296;25.290;2023-08-30T13:53:51;27.60;99.90
24614;DHT22;12760;46.296;25.290;2023-08-30T13:56:17;27.70;99.90
24614;DHT22;12760;46.296;25.290;2023-08-30T13:58:44;27.70;99.90
24614;DHT22;12760;46.296;25.290;2023-08-30T14:01:10;27.70;99.90
24614;DHT22;12760;46.296;25.290;2023-08-30T14:03:36;27.80;99.90
24614;DHT22;12760;46.296;25.290;2023-08-30T14:06:02;27.80;99.90
24614;DHT22;12760;46.296;25.290;2023-08-30T14:08:28;27.80;99.90
24614;DHT22;12760;46.296;25.290;2023-08-30T14:10:55;27.80;99.90
24614;DHT22;12760;46.296;25.290;2023-08-30T14:13:21;27.90;99.90
24614;DHT22;12760;46.296;25.290;2023-08-30T14:15:47;27.80;99.90
24614;DHT22;12760;46.296;25.290;2023-08-30T14:18:13;27.70;99.90
24614;DHT22;12760;46.296;25.290;2023-08-30T14:20:40;27.50;99.90
24614;DHT22;12760;46.296;25.290;2023-08-30T14:23:06;27.60;99.90
24614;DHT22;12760;46.296;25.290;2023-08-30T14:25:31;27.60;99.90
24614;DHT22;12760;46.296;25.290;2023-08-30T14:27:57;27.60;99.90
24614;DHT22;12760;46.296;25.290;2023-08-30T14:30:25;27.50;99.90
24614;DHT22;12760;46.296;25.290;2023-08-30T14:32:51;27.40;99.90
24614;DHT22;12760;46.296;25.290;2023-08-30T14:35:18;27.50;99.90
24614;DHT22;12760;46.296;25.290;2023-08-30T14:37:46;27.40;99.90
24614;DHT22;12760;46.296;25.290;2023-08-30T14:40:13;27.20;99.90
24614;DHT22;12760;46.296;25.290;2023-08-30T14:42:39;27.30;99.90
24614;DHT22;12760;46.296;25.290;2023-08-30T14:45:06;27.30;99.90
24614;DHT22;12760;46.296;25.290;2023-08-30T14:47:35;27.40;99.90
24614;DHT22;12760;46.296;25.290;2023-08-30T14:50:01;27.40;99.90
24614;DHT22;12760;46.296;25.290;2023-08-30T14:52:28;27.40;99.90
24614;DHT22;12760;46.296;25.290;2023-08-30T14:54:54;27.30;99.90
24614;DHT22;12760;46.296;25.290;2023-08-30T14:57:20;27.30;99.90
24614;DHT22;12760;46.296;25.290;2023-08-30T14:59:47;27.30;99.90
24614;DHT22;12760;46.296;25.290;2023-08-30T15:02:13;27.40;99.90
24614;DHT22;12760;46.296;25.290;2023-08-30T15:04:40;27.30;99.90
24614;DHT22;12760;46.296;25.290;2023-08-30T15:07:05;27.30;99.90
24614;DHT22;12760;46.296;25.290;2023-08-30T15:09:31;27.30;99.90
24614;DHT22;12760;46.296;25.290;2023-08-30T15:11:57;27.30;99.90
24614;DHT22;12760;46.296;25.290;2023-08-30T15:14:25;27.20;99.90
24614;DHT22;12760;46.296;25.290;2023-08-30T15:16:51;27.10;99.90
24614;DHT22;12760;46.296;25.290;2023-08-30T15:19:17;27.10;99.90
24614;DHT22;12760;46.296;25.290;2023-08-30T15:21:43;27.10;99.90
24614;DHT22;12760;46.296;25.290;2023-08-30T15:24:09;27.10;99.90
24614;DHT22;12760;46.296;25.290;2023-08-30T15:26:35;27.10;99.90